createdAt,value
2019-05-13T00:01:43.394Z,6.90
2019-05-13T00:04:33.728Z,6.90
2019-05-13T00:07:23.881Z,6.90
2019-05-13T00:10:04.202Z,6.80
2019-05-13T00:12:45.105Z,6.80
2019-05-13T00:15:26.067Z,6.80
2019-05-13T00:18:06.723Z,6.80
2019-05-13T00:20:47.855Z,6.70
2019-05-13T00:23:28.674Z,6.60
2019-05-13T00:26:09.588Z,6.60
2019-05-13T00:28:50.640Z,6.70
2019-05-13T00:31:33.455Z,6.50
2019-05-13T00:34:14.369Z,6.50
2019-05-13T00:37:07.880Z,6.40
2019-05-13T00:39:38.535Z,6.40
2019-05-13T00:42:19.316Z,6.40
2019-05-13T00:45:00.590Z,6.40
2019-05-13T00:47:43.457Z,6.50
2019-05-13T00:50:24.215Z,6.50
2019-05-13T00:58:34.965Z,6.30
2019-05-13T01:01:03.821Z,6.40
2019-05-13T01:03:45.930Z,6.40
2019-05-13T01:06:14.757Z,6.40
2019-05-13T01:11:58.161Z,6.30
2019-05-13T01:17:53.540Z,6.30
2019-05-13T01:20:24.251Z,6.30
2019-05-13T01:23:14.081Z,6.20
2019-05-13T01:26:03.948Z,6.10
2019-05-13T01:28:53.584Z,6.20
2019-05-13T01:31:43.408Z,6.10
2019-05-13T01:34:33.771Z,6.10
2019-05-13T01:37:23.372Z,6.10
2019-05-13T01:40:31.476Z,6.10
2019-05-13T01:43:19.594Z,6.10
2019-05-13T01:46:07.691Z,6.10
2019-05-13T01:48:55.740Z,6.10
2019-05-13T01:51:44.154Z,6.10
2019-05-13T01:54:34.011Z,6.10
2019-05-13T01:57:23.873Z,6.10
2019-05-13T02:00:14.020Z,6.10
2019-05-13T02:03:03.885Z,6.00
2019-05-13T02:05:45.019Z,6.10
2019-05-13T02:08:26.082Z,6.10
2019-05-13T02:11:07.518Z,6.00
2019-05-13T02:13:48.459Z,6.00
2019-05-13T02:16:28.774Z,6.00
2019-05-13T02:19:09.599Z,6.00
2019-05-13T02:21:50.348Z,6.00
2019-05-13T02:24:31.132Z,6.00
2019-05-13T02:27:14.079Z,6.00
2019-05-13T02:29:54.663Z,5.90
2019-05-13T02:32:35.560Z,5.90
2019-05-13T02:35:16.329Z,5.90
2019-05-13T02:38:16.776Z,5.80
2019-05-13T02:40:42.875Z,5.80
2019-05-13T02:43:23.803Z,5.70
2019-05-13T02:46:05.304Z,5.70
2019-05-13T02:48:46.461Z,5.70
2019-05-13T02:51:28.044Z,5.70
2019-05-13T02:54:12.238Z,5.70
2019-05-13T02:56:52.645Z,5.70
2019-05-13T02:59:33.937Z,5.70
2019-05-13T03:02:15.417Z,5.60
2019-05-13T03:04:55.896Z,5.60
2019-05-13T03:07:36.862Z,5.60
2019-05-13T03:10:17.623Z,5.60
2019-05-13T03:12:58.504Z,5.50
2019-05-13T03:18:39.393Z,5.40
2019-05-13T03:21:23.203Z,5.40
2019-05-13T03:24:03.846Z,5.40
2019-05-13T03:26:45.148Z,5.40
2019-05-13T03:29:25.985Z,5.40
2019-05-13T03:32:07.661Z,5.30
2019-05-13T03:34:48.274Z,5.30
2019-05-13T03:37:34.385Z,5.30
2019-05-13T03:40:13.310Z,5.30
2019-05-13T03:42:54.228Z,5.30
2019-05-13T03:45:34.661Z,5.40
2019-05-13T03:48:15.783Z,5.30
2019-05-13T03:53:42.966Z,5.30
2019-05-13T03:56:23.579Z,5.30
2019-05-13T03:59:05.138Z,5.30
2019-05-13T04:01:46.556Z,5.30
2019-05-13T04:04:27.941Z,5.30
2019-05-13T04:07:08.728Z,5.30
2019-05-13T04:09:52.476Z,5.20
2019-05-13T04:12:33.539Z,5.20
2019-05-13T04:15:14.775Z,5.30
2019-05-13T04:17:55.866Z,5.30
2019-05-13T04:20:36.559Z,5.30
2019-05-13T04:23:17.158Z,5.30
2019-05-13T04:25:58.107Z,5.30
2019-05-13T04:28:38.687Z,5.30
2019-05-13T04:31:22.823Z,5.30
2019-05-13T04:34:02.499Z,5.40
2019-05-13T04:36:43.571Z,5.30
2019-05-13T04:39:40.116Z,5.40
2019-05-13T04:42:07.687Z,5.50
2019-05-13T04:44:48.696Z,5.60
2019-05-13T04:47:33.113Z,5.60
2019-05-13T04:52:54.407Z,5.60
2019-05-13T04:55:42.886Z,5.70
2019-05-13T05:02:04.975Z,5.80
2019-05-13T05:04:47.570Z,5.90
2019-05-13T05:07:32.722Z,6.00
2019-05-13T05:10:25.081Z,6.00
2019-05-13T05:13:02.426Z,6.00
2019-05-13T05:15:46.659Z,6.10
2019-05-13T05:18:27.600Z,6.10
2019-05-13T05:21:08.548Z,6.20
2019-05-13T05:23:51.501Z,6.40
2019-05-13T05:26:33.109Z,6.40
2019-05-13T05:29:14.573Z,6.40
2019-05-13T05:31:55.126Z,6.40
2019-05-13T05:34:36.040Z,6.60
2019-05-13T05:37:17.321Z,6.70
2019-05-13T05:39:58.522Z,6.90
2019-05-13T05:42:42.026Z,6.90
2019-05-13T05:45:23.190Z,6.90
2019-05-13T05:48:11.848Z,7.00
2019-05-13T06:05:08.018Z,8.10
2019-05-13T06:07:48.525Z,8.20
2019-05-13T06:10:17.317Z,8.10
2019-05-13T06:13:05.343Z,8.20
2019-05-13T06:15:53.509Z,8.20
2019-05-13T06:18:41.648Z,8.30
2019-05-13T06:21:31.937Z,8.30
2019-05-13T06:24:22.664Z,8.30
2019-05-13T06:27:11.695Z,8.30
2019-05-13T06:30:01.992Z,8.40
2019-05-13T06:32:49.028Z,8.50
2019-05-13T06:35:37.063Z,8.80
2019-05-13T06:38:25.142Z,8.90
2019-05-13T06:41:14.760Z,9.10
2019-05-13T06:44:03.156Z,9.20
2019-05-13T06:46:51.810Z,9.20
2019-05-13T06:49:42.844Z,9.30
2019-05-13T06:52:31.967Z,9.30
2019-05-13T06:55:21.253Z,9.30
2019-05-13T06:58:11.407Z,9.20
2019-05-13T07:01:03.098Z,9.40
2019-05-13T07:03:51.768Z,9.50
2019-05-13T07:06:41.833Z,9.60
2019-05-13T07:09:22.722Z,9.60
2019-05-13T07:12:03.974Z,9.60
2019-05-13T07:14:44.816Z,9.60
2019-05-13T07:17:25.634Z,9.60
2019-05-13T07:20:06.096Z,9.60
2019-05-13T07:22:47.487Z,9.70
2019-05-13T07:25:28.498Z,9.60
2019-05-13T07:28:12.453Z,9.70
2019-05-13T07:30:52.977Z,9.70
2019-05-13T07:33:22.316Z,9.80
2019-05-13T07:36:12.713Z,9.80
2019-05-13T07:39:01.362Z,9.80
2019-05-13T07:41:52.093Z,9.70
2019-05-13T07:44:41.683Z,9.90
2019-05-13T07:47:31.391Z,10.00
2019-05-13T07:50:21.784Z,10.10
2019-05-13T07:53:12.587Z,10.20
2019-05-13T07:56:01.956Z,10.20
2019-05-13T07:58:52.170Z,10.10
2019-05-13T08:01:41.643Z,10.10
2019-05-13T08:04:44.495Z,10.10
2019-05-13T08:07:02.926Z,10.20
2019-05-13T08:09:32.226Z,10.30
2019-05-13T08:12:10.128Z,10.20
2019-05-13T08:14:32.927Z,10.40
2019-05-13T08:17:02.708Z,10.40
2019-05-13T08:19:32.715Z,10.50
2019-05-13T08:22:02.308Z,10.60
2019-05-13T08:24:31.742Z,10.60
2019-05-13T08:27:02.097Z,10.60
2019-05-13T08:29:32.856Z,10.70
2019-05-13T08:32:02.911Z,10.60
2019-05-13T08:34:32.827Z,10.80
2019-05-13T08:37:03.161Z,10.90
2019-05-13T08:39:37.906Z,11.10
2019-05-13T08:42:14.994Z,11.20
2019-05-13T08:44:33.050Z,11.20
2019-05-13T08:47:03.109Z,11.30
2019-05-13T08:49:32.721Z,11.50
2019-05-13T08:52:02.102Z,11.50
2019-05-13T08:54:32.746Z,11.50
2019-05-13T08:57:02.928Z,11.50
2019-05-13T08:59:32.146Z,11.70
2019-05-13T09:02:03.099Z,11.60
2019-05-13T09:04:31.658Z,11.50
2019-05-13T09:07:02.071Z,11.70
2019-05-13T09:09:31.571Z,11.80
2019-05-13T09:12:02.579Z,11.90
2019-05-13T09:14:32.420Z,11.80
2019-05-13T09:17:02.001Z,12.00
2019-05-13T09:19:32.299Z,12.10
2019-05-13T09:22:03.004Z,12.10
2019-05-13T09:24:37.359Z,12.30
2019-05-13T09:27:02.341Z,12.30
2019-05-13T09:29:32.267Z,12.40
2019-05-13T09:32:03.859Z,12.20
2019-05-13T09:34:32.867Z,12.30
2019-05-13T09:37:02.986Z,12.50
2019-05-13T09:39:32.377Z,12.60
2019-05-13T09:42:02.778Z,12.60
2019-05-13T09:44:32.866Z,12.70
2019-05-13T09:47:02.815Z,12.80
2019-05-13T09:49:32.936Z,13.00
2019-05-13T09:52:02.285Z,13.00
2019-05-13T09:54:32.805Z,13.00
2019-05-13T09:57:02.044Z,13.00
2019-05-13T09:59:31.863Z,13.10
2019-05-13T10:02:02.871Z,13.00
2019-05-13T10:04:32.014Z,13.10
2019-05-13T10:07:02.083Z,13.30
2019-05-13T10:09:32.750Z,13.10
2019-05-13T10:12:03.219Z,13.10
2019-05-13T10:14:33.091Z,13.30
2019-05-13T10:17:06.122Z,13.40
2019-05-13T10:19:32.644Z,13.30
2019-05-13T10:22:01.464Z,13.50
2019-05-13T10:24:32.777Z,13.50
2019-05-13T10:27:02.303Z,13.50
2019-05-13T10:29:31.652Z,13.30
2019-05-13T10:32:02.618Z,13.30
2019-05-13T10:34:32.028Z,13.40
2019-05-13T10:37:02.241Z,13.50
2019-05-13T10:39:31.525Z,13.70
2019-05-13T10:42:03.122Z,13.80
2019-05-13T10:44:30.731Z,13.90
2019-05-13T10:46:59.437Z,13.80
2019-05-13T10:49:28.783Z,13.70
2019-05-13T10:51:57.528Z,13.80
2019-05-13T10:54:26.263Z,13.90
2019-05-13T10:56:59.432Z,13.80
2019-05-13T10:59:25.785Z,13.80
2019-05-13T11:01:54.771Z,13.90
2019-05-13T11:04:23.601Z,14.00
2019-05-13T11:06:52.742Z,13.90
2019-05-13T11:09:22.075Z,13.90
2019-05-13T11:11:52.830Z,13.90
2019-05-13T11:14:22.029Z,14.00
2019-05-13T11:16:52.392Z,14.10
2019-05-13T11:19:23.024Z,14.40
2019-05-13T11:21:51.893Z,14.50
2019-05-13T11:24:22.728Z,14.50
2019-05-13T11:26:53.112Z,14.30
2019-05-13T11:29:22.954Z,14.40
2019-05-13T11:31:52.611Z,14.60
2019-05-13T11:34:22.594Z,14.40
2019-05-13T11:36:53.196Z,14.60
2019-05-13T11:39:22.317Z,14.70
2019-05-13T11:41:51.276Z,15.00
2019-05-13T11:44:22.581Z,14.70
2019-05-13T11:46:52.964Z,14.70
2019-05-13T11:49:21.084Z,14.80
2019-05-13T11:51:51.905Z,14.70
2019-05-13T11:54:22.356Z,14.80
2019-05-13T11:57:01.230Z,14.80
2019-05-13T11:59:22.096Z,14.80
2019-05-13T12:01:53.892Z,15.00
2019-05-13T12:04:23.977Z,15.10
2019-05-13T12:06:54.576Z,15.10
2019-05-13T12:09:22.786Z,15.20
2019-05-13T12:11:51.566Z,15.30
2019-05-13T12:14:43.663Z,15.40
2019-05-13T12:16:51.682Z,15.20
2019-05-13T12:19:21.930Z,15.50
2019-05-13T12:21:54.039Z,15.40
2019-05-13T12:24:22.662Z,15.50
2019-05-13T12:29:22.524Z,15.40
2019-05-13T12:31:52.622Z,15.50
2019-05-13T12:34:22.810Z,15.60
2019-05-13T12:36:51.999Z,15.50
2019-05-13T12:39:23.884Z,15.60
2019-05-13T12:41:53.896Z,15.90
2019-05-13T12:44:22.811Z,15.80
2019-05-13T12:46:54.207Z,16.00
2019-05-13T12:49:22.791Z,16.10
2019-05-13T12:51:51.895Z,15.90
2019-05-13T12:54:23.454Z,16.00
2019-05-13T12:56:52.425Z,15.80
2019-05-13T12:59:22.229Z,16.20
2019-05-13T13:01:52.725Z,16.40
2019-05-13T13:04:23.908Z,16.30
2019-05-13T13:06:53.142Z,16.00
2019-05-13T13:09:22.578Z,16.00
2019-05-13T13:11:54.392Z,16.20
2019-05-13T13:14:21.984Z,16.30
2019-05-13T13:16:54.019Z,16.20
2019-05-13T13:19:22.052Z,16.20
2019-05-13T13:21:53.387Z,16.20
2019-05-13T13:24:23.649Z,15.90
2019-05-13T13:26:53.371Z,16.00
2019-05-13T13:29:22.446Z,16.30
2019-05-13T13:31:55.357Z,16.50
2019-05-13T13:34:25.795Z,16.40
2019-05-13T13:36:52.805Z,16.50
2019-05-13T13:39:25.183Z,16.40
2019-05-13T13:41:53.514Z,16.50
2019-05-13T13:44:24.630Z,16.50
2019-05-13T13:46:54.784Z,16.60
2019-05-13T13:49:23.717Z,16.80
2019-05-13T13:51:52.710Z,16.80
2019-05-13T13:54:22.371Z,16.80
2019-05-13T13:56:55.985Z,16.90
2019-05-13T14:01:54.927Z,16.90
2019-05-13T14:04:23.223Z,16.90
2019-05-13T14:06:33.061Z,15.50
2019-05-13T14:07:09.591Z,16.60
2019-05-13T14:09:22.562Z,16.90
2019-05-13T14:11:51.614Z,16.50
2019-05-13T14:14:21.596Z,16.30
2019-05-13T14:16:51.894Z,16.40
2019-05-13T14:19:21.820Z,16.40
2019-05-13T14:21:52.442Z,16.40
2019-05-13T14:24:21.829Z,16.60
2019-05-13T14:26:52.386Z,16.70
2019-05-13T14:29:30.138Z,16.80
2019-05-13T14:31:52.205Z,16.90
2019-05-13T14:34:20.975Z,17.10
2019-05-13T14:36:51.804Z,16.80
2019-05-13T14:39:22.194Z,16.90
2019-05-13T14:41:51.651Z,17.20
2019-05-13T14:44:21.954Z,17.10
2019-05-13T14:46:52.311Z,16.90
2019-05-13T14:49:22.453Z,16.90
2019-05-13T14:51:53.085Z,17.10
2019-05-13T14:54:21.947Z,17.10
2019-05-13T14:56:52.115Z,17.20
2019-05-13T14:59:22.135Z,16.90
2019-05-13T15:01:51.863Z,16.80
2019-05-13T15:04:22.317Z,16.90
2019-05-13T15:06:51.269Z,16.90
2019-05-13T15:09:22.348Z,16.80
2019-05-13T15:11:52.794Z,17.00
2019-05-13T15:14:21.962Z,17.30
2019-05-13T15:17:02.258Z,17.10
2019-05-13T15:19:22.309Z,17.30
2019-05-13T15:21:52.064Z,17.40
2019-05-13T15:24:21.382Z,17.20
2019-05-13T15:26:51.754Z,16.90
2019-05-13T15:29:22.358Z,17.30
2019-05-13T15:31:51.591Z,17.30
2019-05-13T15:34:20.569Z,17.10
2019-05-13T15:36:50.943Z,17.20
2019-05-13T15:39:19.845Z,17.40
2019-05-13T15:41:48.730Z,17.40
2019-05-13T15:44:17.592Z,17.20
2019-05-13T15:46:46.464Z,17.40
2019-05-13T15:49:15.510Z,17.40
2019-05-13T15:51:44.398Z,17.50
2019-05-13T15:54:15.544Z,17.10
2019-05-13T15:56:43.923Z,17.10
2019-05-13T15:59:12.859Z,17.20
2019-05-13T16:01:41.665Z,17.30
2019-05-13T16:04:12.816Z,17.20
2019-05-13T16:06:41.801Z,16.90
2019-05-13T16:09:11.685Z,17.20
2019-05-13T16:11:41.443Z,17.30
2019-05-13T16:14:11.664Z,17.30
2019-05-13T16:16:41.759Z,17.30
2019-05-13T16:19:10.737Z,17.30
2019-05-13T16:21:41.599Z,17.20
2019-05-13T16:24:11.955Z,17.20
2019-05-13T16:26:42.622Z,17.10
2019-05-13T16:29:12.589Z,17.20
2019-05-13T16:31:41.823Z,17.00
2019-05-13T16:34:12.825Z,17.00
2019-05-13T16:36:42.948Z,17.30
2019-05-13T16:39:12.473Z,17.60
2019-05-13T16:41:42.658Z,17.60
2019-05-13T16:44:12.200Z,17.00
2019-05-13T16:46:42.531Z,16.80
2019-05-13T16:49:12.225Z,16.90
2019-05-13T16:51:42.551Z,16.90
2019-05-13T16:54:11.943Z,17.00
2019-05-13T16:56:42.110Z,17.00
2019-05-13T16:59:11.051Z,16.90
2019-05-13T17:01:41.906Z,17.00
2019-05-13T17:04:12.369Z,16.90
2019-05-13T17:06:41.666Z,17.00
2019-05-13T17:09:11.537Z,17.20
2019-05-13T17:11:41.535Z,17.10
2019-05-13T17:14:10.609Z,16.90
2019-05-13T17:16:41.430Z,16.90
2019-05-13T17:19:11.879Z,16.70
2019-05-13T17:21:41.518Z,16.70
2019-05-13T17:24:12.518Z,16.40
2019-05-13T17:26:41.776Z,16.50
2019-05-13T17:29:11.953Z,16.60
2019-05-13T17:31:41.824Z,16.80
2019-05-13T17:34:12.043Z,17.00
2019-05-13T17:36:41.953Z,16.70
2019-05-13T17:39:12.588Z,16.50
2019-05-13T17:41:42.246Z,16.60
2019-05-13T17:44:11.738Z,16.60
2019-05-13T17:46:41.904Z,16.30
2019-05-13T17:49:11.839Z,16.40
2019-05-13T17:51:42.587Z,16.40
2019-05-13T17:54:11.966Z,16.20
2019-05-13T17:56:40.934Z,16.30
2019-05-13T17:59:11.412Z,16.20
2019-05-13T18:01:41.296Z,16.10
2019-05-13T18:04:11.743Z,16.10
2019-05-13T18:06:41.764Z,15.90
2019-05-13T18:09:11.962Z,16.00
2019-05-13T18:11:41.797Z,16.00
2019-05-13T18:14:11.439Z,15.80
2019-05-13T18:16:42.029Z,15.90
2019-05-13T18:19:11.943Z,15.70
2019-05-13T18:21:42.392Z,15.50
2019-05-13T18:24:12.037Z,15.60
2019-05-13T18:26:41.804Z,15.60
2019-05-13T18:29:12.197Z,15.40
2019-05-13T18:31:42.146Z,15.10
2019-05-13T18:34:12.231Z,15.10
2019-05-13T18:36:42.579Z,14.90
2019-05-13T18:39:12.300Z,14.80
2019-05-13T18:41:41.538Z,14.60
2019-05-13T18:44:12.252Z,14.40
2019-05-13T18:46:41.709Z,14.30
2019-05-13T18:49:11.985Z,14.00
2019-05-13T18:51:42.269Z,14.00
2019-05-13T18:54:11.951Z,13.90
2019-05-13T18:56:41.686Z,13.90
2019-05-13T18:59:12.592Z,13.80
2019-05-13T19:01:41.181Z,13.70
2019-05-13T19:04:11.428Z,13.60
2019-05-13T19:06:42.396Z,13.50
2019-05-13T19:09:11.369Z,13.40
2019-05-13T19:11:42.460Z,13.40
2019-05-13T19:14:12.298Z,13.30
2019-05-13T19:16:42.266Z,13.20
2019-05-13T19:19:15.557Z,13.10
2019-05-13T19:21:41.892Z,13.10
2019-05-13T19:24:13.171Z,13.00
2019-05-13T19:26:41.722Z,13.00
2019-05-13T19:29:11.555Z,12.80
2019-05-13T19:31:43.913Z,12.80
2019-05-13T19:34:12.848Z,12.70
2019-05-13T19:36:44.233Z,12.60
2019-05-13T19:39:15.786Z,12.60
2019-05-13T19:41:47.191Z,12.50
2019-05-13T19:44:18.758Z,12.50
2019-05-13T19:46:52.212Z,12.40
2019-05-13T19:49:29.659Z,12.30
2019-05-13T19:51:52.120Z,12.30
2019-05-13T19:54:22.299Z,12.30
2019-05-13T19:56:52.065Z,12.20
2019-05-13T19:59:21.595Z,12.10
2019-05-13T20:01:51.644Z,12.00
2019-05-13T20:04:23.489Z,12.00
2019-05-13T20:07:12.047Z,11.90
2019-05-13T20:10:02.758Z,11.90
2019-05-13T20:12:44.082Z,11.80
2019-05-13T20:15:25.108Z,11.70
2019-05-13T20:18:05.929Z,11.70
2019-05-13T20:20:46.837Z,11.60
2019-05-13T20:23:27.683Z,11.50
2019-05-13T20:26:08.412Z,11.40
2019-05-13T20:28:51.200Z,11.40
2019-05-13T20:31:32.273Z,11.40
2019-05-13T20:34:13.194Z,11.30
2019-05-13T20:36:54.480Z,11.20
2019-05-13T20:39:23.293Z,11.20
2019-05-13T20:42:12.443Z,11.20
2019-05-13T20:45:02.461Z,11.10
2019-05-13T20:47:50.736Z,11.00
2019-05-13T20:50:41.089Z,11.00
2019-05-13T20:53:28.567Z,10.90
2019-05-13T20:56:16.915Z,10.80
2019-05-13T21:01:58.950Z,10.70
2019-05-13T21:04:46.982Z,10.70
2019-05-13T21:07:34.956Z,10.60
2019-05-13T21:10:23.038Z,10.50
2019-05-13T21:13:03.971Z,10.50
2019-05-13T21:15:45.300Z,10.40
2019-05-13T21:18:14.064Z,10.40
2019-05-13T21:21:02.058Z,10.30
2019-05-13T21:23:52.054Z,10.30
2019-05-13T21:30:01.226Z,10.20
2019-05-13T21:33:21.925Z,10.10
2019-05-13T21:46:25.008Z,9.90
2019-05-13T21:49:17.398Z,9.80
2019-05-13T21:52:05.377Z,9.60
2019-05-13T21:55:16.235Z,9.60
2019-05-13T21:57:45.428Z,9.50
2019-05-13T22:06:25.468Z,9.30
2019-05-13T22:12:07.715Z,9.20
2019-05-13T22:14:36.773Z,9.10
2019-05-13T22:17:24.980Z,9.10
2019-05-13T22:19:54.184Z,9.00
2019-05-13T22:22:42.726Z,9.00
2019-05-13T22:25:33.232Z,9.00
2019-05-13T22:28:02.613Z,8.90
2019-05-13T22:30:51.814Z,8.80
2019-05-13T22:33:45.253Z,8.80
2019-05-13T22:36:14.457Z,8.70
2019-05-13T22:38:43.224Z,8.70
2019-05-13T22:44:06.272Z,8.60
2019-05-13T22:46:54.453Z,8.60
2019-05-13T22:49:42.565Z,8.60
2019-05-13T22:52:11.504Z,8.50
2019-05-13T22:55:02.272Z,8.50
2019-05-13T22:57:51.089Z,8.50
2019-05-13T23:00:42.175Z,8.40
2019-05-13T23:03:29.553Z,8.40
2019-05-13T23:06:17.928Z,8.30
2019-05-13T23:09:06.713Z,8.30
2019-05-13T23:11:35.964Z,8.30
2019-05-13T23:14:24.354Z,8.20
2019-05-13T23:17:12.699Z,8.20
2019-05-13T23:20:01.509Z,8.20
2019-05-13T23:22:51.875Z,8.10
2019-05-13T23:25:40.982Z,8.00
2019-05-13T23:28:32.088Z,8.10
2019-05-13T23:31:19.944Z,8.00
2019-05-13T23:34:08.534Z,8.00
2019-05-13T23:36:37.880Z,7.90
2019-05-13T23:39:26.899Z,7.90
2019-05-13T23:42:17.783Z,7.90
2019-05-13T23:45:06.217Z,7.90
2019-05-13T23:48:15.609Z,7.80
2019-05-13T23:51:05.136Z,7.80
2019-05-13T23:53:55.883Z,7.70
2019-05-13T23:56:44.267Z,7.70
2019-05-13T23:59:32.927Z,7.60
